Tiempo atmosférico en la estación meteorológica de Lanzarote Aeropuerto, Las Palmas (14 m.)



Fecha
DESCASC
Temp. máxima en grados centígrados (hora)
DESCASC
Temp. mínima en grados centígrados (hora)
DESCASC
Temp. media en grados centígrados
DESCASC
Racha de viento máxima en m/sg (hora)
DESCASC
Velocidad máxima media en intervalos de 10 minutos(hora)
DESCASC
Precipitaciones diarias en mm
DESCASC
Precipitaciones de 00:00 a 06:00 en mm
DESCASC
Precipitaciones de 06:00 a 12:00 en mm
DESCASC
Precipitaciones de 12:00 a 18:00 en mm
DESCASC
Precipitaciones de 18:00 a 24:00 en mm
DESCASC
13-10-2019 25.9 (12:40) 17.8 (07:20) 21.8 11.39 (19:10) 5.28 (12:40) 0 0 0 0 0
12-10-2019 26.7 (17:30) 17.9 (07:20) 22.3 12.78 (20:50) 6.94 (19:00) 0 0 0 0 0
11-10-2019 25.6 (14:40) 18.1 (08:10) 21.9 8.89 (20:30) 4.72 (06:20) 0 0 0 0 0
10-10-2019 25.8 (11:20) 20.2 (00:00) 23 9.17 (13:10) 6.39 (13:00) 0 0 0 0 0
09-10-2019 28.2 (14:00) 19.4 (00:00) 23.8 12.78 (12:40) 8.89 (11:30) 0 0 0 0 0
08-10-2019 29.6 (14:30) 19 (00:00) 24.3 11.67 (15:30) 8.06 (18:10) 0 0 0 0 0
07-10-2019 29.6 (15:20) 20.6 (00:00) 25.1 12.5 (19:10) 9.44 (19:10) 0 0 0 0 0
06-10-2019 28.3 (14:40) 20.5 (00:00) 24.4 14.44 (18:30) 9.72 (15:30) 0 0 0 0 0
05-10-2019 29.2 (14:20) 21.4 (00:00) 25.3 18.61 (10:10) 15.28 (10:20) 0 0 0 0 0
04-10-2019 29.3 (12:50) 21.3 (00:00) 25.3 20 (04:40) 14.72 (04:40) 0 0 0 0 0
03-10-2019 28.8 (14:20) 21.7 (00:00) 25.3 20 (15:40) 16.94 (15:40) 0 0 0 0 0
02-10-2019 32.4 (15:00) 20.7 (00:00) 26.6 14.44 (13:00) 10 (15:30) 0 0 0 0 0
01-10-2019 33.7 (15:30) 21.2 (00:00) 27.5 13.89 (19:10) 10.83 (19:00) 0 0 0 0 0
30-09-2019 32.8 (12:20) 21.6 (00:00) 27.2 17.5 (04:10) 12.5 (07:30) 0 0 0 0 0
29-09-2019 32.3 (15:30) 19.4 (00:00) 25.8 14.44 (18:20) 9.72 (18:40) 0 0 0 0 0
28-09-2019 29.7 (16:30) 20.3 (00:00) 25 11.67 (23:10) 8.61 (18:30) 0 0 0 0 0
27-09-2019 29.5 (15:00) 20.7 (00:00) 25.1 13.33 (16:20) 8.61 (17:00) 0 0 0 0 0
26-09-2019 29.2 (14:10) 22.3 (00:00) 25.8 12.78 (14:10) 8.89 (17:00) 0 0 0 0 0
25-09-2019 29.5 (14:10) 20.8 (00:00) 25.1 15 (13:40) 11.11 (10:30) 0 0 0 0 0
24-09-2019 29 (14:30) 20.9 (00:00) 24.9 15 (12:10) 11.39 (18:30) 0 0 0 0 0
23-09-2019 29 (14:30) 20.6 (00:00) 24.8 15.28 (16:10) 11.11 (19:00) 0 0 0 0 0
22-09-2019 31 (15:30) 20.1 (00:00) 25.6 12.5 (21:20) 8.61 (20:30) 0 0 0 0 0
21-09-2019 26.6 (11:10) 19 (00:00) 22.8 7.78 (07:50) 5 (11:30) 0 0 0 0 0
20-09-2019 29.1 (14:10) 20.4 (00:00) 24.8 11.39 (11:20) 8.33 (18:30) 0 0 0 0 0
19-09-2019 28.9 (15:00) 19.4 (00:00) 24.1 13.33 (12:50) 9.17 (19:00) 0 0 0 0 0
18-09-2019 28.8 (14:40) 18.9 (00:00) 23.8 14.44 (14:50) 7.78 (21:00) 0 0 0 0 0
17-09-2019 30 (14:10) 20.3 (00:00) 25.1 12.5 (11:20) 8.61 (17:30) 0 0 0 0 0

Gráficas

Temp. máximas Temp. mínimas Temp. medias Precipitaciones Rachas de viento máximas Velocidades máximas media en intervalos de 10 minutos

Datos horarios

Fecha y hora oficial Temperatura (ºC) Velocidad del viento (km/h) Dirección del viento Racha (km/h) Dirección de racha Precipitación (mm) Presión (hPa) Tendencia (hPa) Humedad (%)
2019-10-16 23:00:00 19.5 9 Norte 17 Norte 0 1019.9 2.2 79
2019-10-16 22:00:00 20.5 7 Nordeste 18 Norte 0 1019.2 2 76
2019-10-16 21:00:00 20.9 13 Norte 24 Norte 0 1018.3 1.2 73
2019-10-16 20:00:00 21.8 18 Norte 30 Norte 0 1017.7 0.4 72
2019-10-16 19:00:00 22.5 22 Norte 30 Norte 0 1017.2 -0.3 69
2019-10-16 18:00:00 23.5 19 Norte 28 Norte 0 1017.1 -0.8 63
2019-10-16 17:00:00 22.9 19 Este 30 Este 0 1017.3 -1.2 72
2019-10-16 16:00:00 23.5 17 Este 32 Nordeste 0 1017.5 -1.3 67
2019-10-16 15:00:00 22.8 23 Este 33 Nordeste 0 1017.9 -1 72
2019-10-16 14:00:00 24.3 20 Nordeste 35 Nordeste 0 1018.5 -0.9 61
2019-10-16 13:00:00 25.2 18 Nordeste 37 Nordeste 0 1018.8 0.1 57
2019-10-16 12:00:00 26.1 22 Nordeste 37 Nordeste 0 1018.9 0.5 52
2019-10-16 11:00:00 24.6 19 Nordeste 33 Nordeste 0 1019.4 1.4 60
2019-10-16 10:00:00 22.9 19 Nordeste 32 Norte 0 1018.7 1 66
2019-10-16 09:00:00 20.3 13 Norte 18 Norte 0 1018.4 0.8 79
2019-10-16 08:00:00 18.2 13 Norte 30 Norte 0 1018 0.5 86
2019-10-16 07:00:00 18.3 9 Norte 15 Norte 0 1017.7 0.2 87
2019-10-16 06:00:00 18.8 10 Norte 22 Norte 0 1017.6 -0.2 85
2019-10-16 05:00:00 18.9 17 Norte 24 Norte 0 1017.5 -1 85
2019-10-16 04:00:00 19.3 18 Norte 26 Norte 0 1017.5 -1.6 83
2019-10-16 03:00:00 19.5 18 Norte 24 Norte 0 1017.8 -1.6 80
2019-10-16 02:00:00 19.8 12 Norte 18 Norte 0 1018.5 -1.1 77
2019-10-16 01:00:00 19.6 13 Norte 17 Norte 0 1019.1 -0.2 78
2019-10-16 00:00:00 20.1 12 Norte 17 Norte 0 1019.4 0.4 75
2019-10-15 23:00:00 20.6 11 Norte 21 Norte 0 1019.6 1.4 74
2019-10-15 22:00:00 20.9 12 Norte 22 Norte 0 1019.3 1.7 72
2019-10-15 21:00:00 21.5 14 Nordeste 26 Nordeste 0 1019 1.8 71
2019-10-15 20:00:00 22 18 Nordeste 30 Nordeste 0 1018.2 0.7 67
2019-10-15 19:00:00 23.4 22 Nordeste 35 Norte 0 1017.6 -- 59
2019-10-15 18:00:00 24.8 23 Nordeste 41 Nordeste 0 1017.2 -1 50
2019-10-15 17:00:00 25.8 26 Nordeste 39 Norte 0 1017.5 -1.4 42
2019-10-15 16:00:00 26 14 Nordeste 37 Nordeste 0 -- -- 47
2019-10-15 15:00:00 25 19 Este 39 Este 0 1018.2 -1.4 53
2019-10-15 14:00:00 25.1 22 Este 37 Nordeste 0 1018.9 -0.7 53
2019-10-15 13:00:00 25.6 18 Nordeste 32 Nordeste 0 1019.3 0 44
2019-10-15 12:00:00 24.6 17 Nordeste 33 Este 0 1019.6 0.6 50
2019-10-15 11:00:00 23.1 12 Nordeste 28 Nordeste 0 1019.6 1 55
2019-10-15 10:00:00 21.7 17 Nordeste 24 Nordeste 0 1019.3 1 64
2019-10-15 09:00:00 19.5 11 Norte 17 Norte 0 1019 1 71
2019-10-15 08:00:00 17.4 11 Norte 21 Norte 0 1018.6 0.7 82
2019-10-15 07:00:00 17.8 15 Norte 26 Norte 0 1018.3 0 80
2019-10-15 06:00:00 18.4 18 Norte 22 Norte 0 1018 -0.6 82
2019-10-15 05:00:00 18.1 13 Norte 21 Norte 0 1017.9 -1.1 82
2019-10-15 04:00:00 18.4 14 Norte 18 Norte 0 1018.3 -1.3 81
2019-10-15 03:00:00 18.8 13 Norte 22 Norte 0 1018.6 -1.1 79
2019-10-15 02:00:00 19.7 14 Norte 22 Norte 0 1019 -0.6 76
2019-10-15 01:00:00 19.4 12 Norte 17 Norte 0 1019.6 0.4 80
2019-10-15 00:00:00 20.4 12 Norte 24 Nordeste 0 1019.7 0.9 77
2019-10-14 23:00:00 20.8 16 Norte 24 Norte 0 1019.6 1.7 76
2019-10-14 22:00:00 21 15 Norte 26 Nordeste 0 1019.2 1.6 77
2019-10-14 21:00:00 21.5 18 Nordeste 33 Nordeste 0 1018.8 1.4 74
2019-10-14 20:00:00 22.1 22 Norte 35 Norte 0 1017.9 0.7 72
2019-10-14 19:00:00 23.9 28 Norte 37 Norte 0 1017.6 0.4 65
2019-10-14 18:00:00 25.3 24 Norte 39 Nordeste 0 1017.4 -0.3 58
2019-10-14 17:00:00 25.1 24 Nordeste 39 Nordeste 0 1017.2 -1 64
2019-10-14 16:00:00 25.7 24 Nordeste 42 Nordeste 0 1017.2 -1.5 59
2019-10-14 15:00:00 26 22 Nordeste 37 Nordeste 0 1017.7 -0.9 60
2019-10-14 14:00:00 25.1 21 Nordeste 35 Nordeste 0 1018.2 -0.4 65
2019-10-14 13:00:00 24.2 16 Nordeste 28 Norte 0 1018.7 0.5 68
2019-10-14 12:00:00 23.8 14 Norte 30 Nordeste 0 1018.6 1.1 71
2019-10-14 11:00:00 23.2 6 Sudeste 11 Sudeste 0 1018.6 1.6 76
2019-10-14 10:00:00 22.8 6 Este 11 Nordeste 0 1018.2 1.8 78
2019-10-14 09:00:00 20.9 6 Nordeste 17 Este 0 1017.5 1.5 87
2019-10-14 08:00:00 20 8 Este 30 Norte 0 1017 0.7 88
2019-10-14 07:00:00 18.8 2 Norte 11 Norte 0 1016.4 0.1 91
2019-10-14 06:00:00 19.1 7 Noroeste 13 Noroeste 0 1016 -0.4 87
2019-10-14 05:00:00 18.3 5 Noroeste 13 Norte 0 1016.3 -0.3 86
2019-10-14 04:00:00 18.5 7 Norte 11 Norte 0 1016.3 -0.6 84
2019-10-14 03:00:00 18.5 8 Norte 13 Noroeste 0 1016.4 -0.7 81
2019-10-14 02:00:00 19.7 7 Norte 11 Noroeste 0 1016.6 -0.4 78
2019-10-14 01:00:00 19.6 0 Calma 11 Noroeste 0 1016.9 0.3 75
2019-10-14 00:00:00 20.3 8 Noroeste 18 Oeste 0 1017.1 1.2 72
2019-10-13 23:00:00 20.3 7 Noroeste 28 Oeste 0 1017 1.7 70
2019-10-13 22:00:00 21.7 8 Oeste 28 Oeste 0 1016.6 1.9 64
2019-10-13 21:00:00 22.2 6 Noroeste 21 Oeste 0 1015.9 1.8 62
2019-10-13 20:00:00 23.2 8 Noroeste 41 Oeste 0 1015.3 1.3 59
2019-10-13 19:00:00 24.5 12 Noroeste 24 Noroeste 0 1014.7 0.9 54
2019-10-13 18:00:00 24.2 14 Este 21 Este 0 1014.1 0.2 65
2019-10-13 17:00:00 24.5 11 Este 22 Este 0 1014 -0.1 62
2019-10-13 16:00:00 25.1 15 Sudeste 22 Sudeste 0 1013.8 -0.9 62
2019-10-13 15:00:00 25.3 14 Sudeste 22 Sudeste 0 1013.9 -0.4 63
2019-10-13 14:00:00 25.4 16 Sudeste 22 Sur 0 1014.1 -0.3 61
2019-10-13 13:00:00 25.5 17 Sur 24 Sur 0 1014.7 0.8 56
2019-10-13 12:00:00 24.9 14 Sudeste 18 Sudeste 0 1014.3 0.8 60
2019-10-13 11:00:00 25.1 5 Sur 28 Noroeste 0 1014.4 1.1 56
2019-10-13 10:00:00 23.1 7 Noroeste 26 Oeste 0 1013.9 1.2 62
2019-10-13 09:00:00 20.4 5 Noroeste -- -- 0 1013.5 1.3 77
2019-10-13 08:00:00 18.5 5 Oeste 15 Oeste 0 1013.3 1.2 82
2019-10-13 07:00:00 18.2 6 Noroeste 13 Noroeste 0 1012.7 0.2 84
2019-10-13 06:00:00 18.7 11 Noroeste 15 Noroeste 0 1012.2 -0.8 85
2019-10-13 05:00:00 18.8 13 Noroeste 17 Noroeste 0 1012.1 -1.4 85
2019-10-13 04:00:00 18.7 13 Noroeste 18 Noroeste 0 1012.5 -1.4 84
2019-10-13 03:00:00 19.1 13 Noroeste 17 Noroeste 0 1013 -1.1 84
2019-10-13 02:00:00 19.2 13 Noroeste 15 Norte 0 1013.5 -0.5 83
2019-10-13 01:00:00 19.3 12 Norte 17 Norte 0 1013.9 0.5 83
2019-10-13 00:00:00 19.9 10 Norte 17 Norte 0 1014.1 1.2 81
2019-10-12 23:00:00 20.5 13 Norte 35 Noroeste 0 1014 1.5 80
2019-10-12 22:00:00 21.1 17 Norte 42 Noroeste 0 1013.4 0.8 79
2019-10-12 21:00:00 21.9 21 Norte 46 Noroeste 0 1012.9 0.3 78
2019-10-12 20:00:00 22.3 23 Norte 33 Norte 0 1012.5 0.1 76
2019-10-12 19:00:00 23.4 25 Norte 35 Norte 0 1012.6 0 69
2019-10-12 18:00:00 24.8 24 Noroeste 33 Norte 0 1012.6 -0.1 62
2019-10-12 17:00:00 24.1 21 Este 30 Este 0 1012.4 -1 74
2019-10-12 16:00:00 24.7 19 Este 26 Este 0 1012.6 -1.7 69
2019-10-12 15:00:00 24.8 17 Este 26 Este 0 1012.7 -2 67
2019-10-12 14:00:00 24.9 19 Este 28 Este 0 1013.4 -1.7 68
2019-10-12 13:00:00 24.9 19 Este 26 Este 0 1014.3 -0.5 70
2019-10-12 12:00:00 24.1 15 Este 24 Este 0 1014.7 0.3 72
2019-10-12 11:00:00 23.4 17 Este 24 Este 0 1015.1 1.1 74
2019-10-12 10:00:00 23.2 14 Norte 22 Norte 0 1014.8 1 71
2019-10-12 09:00:00 20.4 12 Norte 32 Noroeste 0 1014.4 0.8 85
2019-10-12 08:00:00 18.8 13 Norte 33 Noroeste 0 1014 0.6 89
2019-10-12 07:00:00 18.5 11 Norte 15 Norte 0 1013.8 0.1 90
2019-10-12 06:00:00 18.9 8 Nordeste 13 Norte 0 1013.6 -0.5 89
2019-10-12 05:00:00 19.4 8 Nordeste 17 Nordeste 0 1013.4 -1.1 87
2019-10-12 04:00:00 19.7 9 Norte 18 Norte 0 1013.7 -1.1 87
2019-10-12 03:00:00 20.3 10 Nordeste 18 Nordeste 0 1014.1 -1 86
2019-10-12 02:00:00 20.7 10 Nordeste 24 Norte 0 1014.5 -0.7 84
2019-10-12 01:00:00 21 12 Norte 28 Noroeste 0 1014.8 0.1 81
2019-10-12 00:00:00 21.4 16 Noroeste 28 Norte 0 1015.1 0.8 80
2019-10-11 23:00:00 21.3 4 Nordeste 18 Noroeste 0 1015.2 1.8 78
2019-10-11 22:00:00 21.8 4 Noroeste 18 Oeste 0 1014.7 1.4 77
2019-10-11 21:00:00 22.4 11 Oeste 32 Oeste 0 1014.3 1.1 75
2019-10-11 20:00:00 23.1 12 Noroeste 28 Noroeste 0 1013.4 0.2 68
2019-10-11 19:00:00 23.2 12 Este 18 Este 0 1013.3 0 75
2019-10-11 18:00:00 24.2 13 Este 21 Sudeste 0 1013.2 -0.6 67
2019-10-11 17:00:00 24.9 13 Este 18 Sudeste 0 1013.2 -1.1 63
2019-10-11 16:00:00 25.1 12 Sudeste 18 Sudeste 0 1013.3 -1.9 63
2019-10-11 15:00:00 25.2 12 Sudeste 17 Sudeste 0 1013.8 -1.8 63
2019-10-11 14:00:00 25.4 13 Sudeste 18 Sudeste 0 1014.3 -1.3 63
2019-10-11 13:00:00 24.9 12 Sudeste 18 Sudeste 0 1015.2 -0.3 65
2019-10-11 12:00:00 24.8 12 Sudeste 18 Sudeste 0 1015.6 0.6 66
2019-10-11 11:00:00 24.1 12 Sudeste 15 Sudeste 0 1015.6 1.1 71
2019-10-11 10:00:00 23 8 Sudeste 15 Noroeste 0 1015.5 1.8 74
2019-10-11 09:00:00 19.7 5 Norte 9 Norte 0 1015 1.6 87
2019-10-11 08:00:00 18.4 3 Norte 17 Sudoeste 0 1014.5 1.5 90
2019-10-11 07:00:00 19.9 9 Norte 24 Noroeste 0 1013.7 0.4 88
2019-10-11 06:00:00 20.1 15 Norte 24 Noroeste 0 1013.4 -0.4 87
2019-10-11 05:00:00 20 9 Noroeste 17 Norte 0 1013 -1.1 87
2019-10-11 04:00:00 19.5 0 Calma 8 Noroeste 0 1013.3 -1.1 87
2019-10-11 03:00:00 19.4 2 Norte 8 Norte 0 1013.8 -0.9 87
2019-10-11 02:00:00 20.5 6 Noroeste 11 Norte 0 1014.1 -0.6 85
2019-10-11 01:00:00 20.6 8 Noroeste 11 Noroeste 0 1014.4 0.1 85
2019-10-11 00:00:00 21.2 5 Norte 8 Norte 0 1014.7 0.8 83
2019-10-10 23:00:00 21.9 7 Noroeste 22 Oeste 0 1014.7 1.7 81
2019-10-10 22:00:00 22.4 9 Norte 18 Nordeste 0 1014.3 1.6 78
2019-10-10 21:00:00 22.7 13 Norte 21 Norte 0 1013.9 1.2 77
2019-10-10 20:00:00 22.6 9 Nordeste 17 Este 0 1013 0.4 80
2019-10-10 19:00:00 22.7 10 Este 24 Este 0 1012.7 -0.1 82
2019-10-10 18:00:00 23.1 15 Este 24 Este 0 1012.7 -0.3 81
2019-10-10 17:00:00 23.4 14 Este 21 Este 0 1012.6 -0.9 81
2019-10-10 16:00:00 23.6 14 Este 26 Este 0 1012.8 -1.2 80
2019-10-10 15:00:00 24 18 Este 28 Este 0 1013 -1.3 77
2019-10-10 14:00:00 24.7 22 Este 33 Este 0 1013.5 -1.1 74
2019-10-10 13:00:00 24.8 23 Este 32 Este 0 1014 -0.5 74
2019-10-10 12:00:00 24.2 20 Este 30 Este 0 1014.3 0.5 74
2019-10-10 11:00:00 24.6 10 Nordeste 28 Norte 0 1014.6 1.3 61
2019-10-10 10:00:00 23.3 9 Norte 17 Norte 0 1014.5 1.5 70
2019-10-10 09:00:00 21 9 Norte 22 Norte 0 1013.8 1.1 86
2019-10-10 08:00:00 20.4 11 Norte 21 Noroeste 0 1013.3 0.7 83
2019-10-10 07:00:00 20.7 14 Norte 21 Norte 0 1013 -0.2 87
2019-10-10 06:00:00 21.3 16 Norte 28 Norte 0 1012.7 -0.7 83
2019-10-10 05:00:00 22.3 21 Norte 28 Norte 0 1012.6 -1.6 77
2019-10-10 04:00:00 22.7 12 Norte 22 Norte 0 1013.2 -1.2 73
2019-10-10 03:00:00 22.7 17 Norte 26 Norte 0 1013.4 -1.5 75
2019-10-10 02:00:00 22.8 14 Norte 22 Norte 0 1014.2 -0.5 77
2019-10-10 01:00:00 22.8 17 Norte 30 Norte 0 1014.4 0.4 80
2019-10-10 00:00:00 22.7 13 Norte 22 Norte 0 1014.9 0.8 84
2019-10-09 23:00:00 22.3 14 Norte 24 Norte 0 1014.7 1.1 80
2019-10-09 22:00:00 22.5 16 Nordeste 39 Noroeste 0 1014 0.5 70
2019-10-09 21:00:00 22.8 20 Nordeste 33 Norte 0 1014.1 1 69
2019-10-09 20:00:00 23 18 Norte 42 Norte 0 1013.6 0.6 69
2019-10-09 19:00:00 24.2 23 Norte 41 Norte 0 1013.5 0.6 65
2019-10-09 18:00:00 25.5 26 Norte 42 Noroeste 0 1013.1 0.1 60
2019-10-09 17:00:00 27.1 24 Norte 35 Norte 0 1013 -0.2 56
2019-10-09 16:00:00 27.3 23 Norte 37 Norte 0 1012.9 -1.1 55
2019-10-09 15:00:00 27.6 27 Norte 37 Norte 0 1013 -1.5 54
2019-10-09 14:00:00 27.8 27 Norte 41 Norte 0 1013.2 -1.4 54
2019-10-09 13:00:00 27.4 25 Norte 46 Norte 0 1014 -0.4 54
2019-10-09 12:00:00 26.1 25 Norte 42 Norte 0 1014.5 0.2 59
2019-10-09 11:00:00 24.5 30 Norte 41 Norte 0 1014.6 0.6 61
2019-10-09 10:00:00 23.5 28 Norte 37 Norte 0 1014.4 0.5 65
2019-10-09 09:00:00 21.6 20 Norte 28 Norte 0 1014.3 0.8 72
2019-10-09 08:00:00 20 11 Norte 30 Norte 0 1014 0.7 79
2019-10-09 07:00:00 19.4 3 Nordeste 21 Norte 0 1013.9 0.4 81
2019-10-09 06:00:00 19.9 12 Norte 26 Norte 0 1013.5 -0.3 79
2019-10-09 05:00:00 19.9 18 Norte 26 Norte 0 1013.3 -1.1 81
2019-10-09 04:00:00 20.4 18 Norte 30 Norte 0 1013.5 -1.1 79
2019-10-09 03:00:00 20.6 14 Norte 26 Norte 0 1013.8 -1.2 80
2019-10-09 02:00:00 20.4 13 Norte 22 Norte 0 1014.4 -0.2 81
2019-10-09 01:00:00 20.4 12 Norte 26 Norte 0 1014.6 0.3 81
2019-10-09 00:00:00 20.9 15 Norte 32 Norte 0 1015 1.3 80
2019-10-08 23:00:00 21.3 21 Norte 33 Norte 0 1014.6 1.3 79
2019-10-08 22:00:00 21.3 18 Norte 30 Norte 0 1014.3 1.1 80
2019-10-08 21:00:00 21.7 16 Norte 35 Norte 0 1013.7 0.8 80
2019-10-08 20:00:00 22.3 20 Norte 35 Norte 0 1013.3 0.6 76
2019-10-08 19:00:00 23.8 26 Norte 37 Norte 0 1013.2 0.5 71
2019-10-08 18:00:00 25.7 28 Norte 37 Norte 0 1012.9 0 63
2019-10-08 17:00:00 27.4 28 Norte 39 Norte 0 1012.7 -0.7 58
2019-10-08 16:00:00 28.6 24 Norte 42 Noroeste 0 1012.7 -1.4 54
2019-10-08 15:00:00 28.5 20 Nordeste 35 Este 0 1012.9 -1.9 56
2019-10-08 14:00:00 28.9 20 Norte 35 Norte 0 1013.4 -1.9 52
2019-10-08 13:00:00 27.9 22 Norte 37 Noroeste 0 1014.1 -1.1 56
2019-10-08 12:00:00 26.9 22 Norte 37 Norte 0 1014.8 0.4 60
2019-10-08 11:00:00 25.1 24 Norte 37 Norte 0 1015.3 1.2 66
2019-10-08 10:00:00 23.3 25 Norte 35 Norte 0 1015.2 1.6 74
2019-10-08 09:00:00 21.1 16 Norte 26 Norte 0 1014.4 1.2 84
2019-10-08 08:00:00 19.5 9 Nordeste 24 Norte 0 1014.1 0.9 89
2019-10-08 07:00:00 20.1 17 Norte 35 Norte 0 1013.6 0.1 88
2019-10-08 06:00:00 19.3 13 Norte 22 Norte 0 1013.2 -0.6 92
2019-10-08 05:00:00 19.4 11 Norte 21 Norte 0 1013.2 -0.9 91
2019-10-08 04:00:00 19.4 13 Norte 18 Norte 0 1013.5 -0.9 90
2019-10-08 03:00:00 19.7 11 Noroeste 15 Norte 0 1013.8 -1 89
2019-10-08 02:00:00 19.6 8 Noroeste 18 Norte 0 1014.1 -0.7 88
2019-10-08 01:00:00 20 6 Noroeste 13 Norte 0 1014.4 0.2 87
2019-10-08 00:00:00 20.7 9 Norte 24 Norte 0 1014.8 1 86
2019-10-07 23:00:00 21.3 14 Norte 32 Norte 0 1014.8 1.4 85
2019-10-07 22:00:00 21.9 22 Norte 37 Norte 0 1014.2 1.2 83
2019-10-07 21:00:00 22.2 27 Norte 39 Norte 0 1013.8 0.7 80
2019-10-07 20:00:00 22.8 30 Norte 45 Norte 0 1013.4 0.2 79
2019-10-07 19:00:00 24.1 32 Norte 42 Norte 0 1013 -0.1 73
2019-10-07 18:00:00 25.9 32 Norte 42 Norte 0 1013.1 -0.3 65
2019-10-07 17:00:00 27.4 30 Norte 42 Norte 0 1013.2 -0.8 59
2019-10-07 16:00:00 28.5 30 Norte 39 Norte 0 1013.1 -1.6 56
2019-10-07 15:00:00 28.8 22 Norte 39 Noroeste 0 1013.4 -2 54
2019-10-07 14:00:00 26.8 16 Este 37 Este 0 1014 -1.2 63
2019-10-07 13:00:00 25.9 22 Este 33 Este 0 1014.7 -0.4 66
2019-10-07 12:00:00 26 19 Este 33 Nordeste 0 1015.4 1 63
2019-10-07 11:00:00 25.4 20 Nordeste 33 Nordeste 0 1015.2 1 67
2019-10-07 10:00:00 23.5 24 Norte 33 Norte 0 1015.1 1.3 73
2019-10-07 09:00:00 21.7 17 Nordeste 28 Nordeste 0 1014.4 0.8 79
2019-10-07 08:00:00 20.8 14 Nordeste 24 Norte 0 1014.2 0.8 83
2019-10-07 07:00:00 21.1 17 Norte 28 Norte 0 1013.8 0.1 82
2019-10-07 06:00:00 21.4 15 Norte 24 Nordeste 0 1013.6 -0.6 80
2019-10-07 05:00:00 21.6 15 Nordeste 28 Norte 0 1013.4 -1.4 78
2019-10-07 04:00:00 21.6 22 Norte 32 Norte 0 1013.7 -1.7 80
2019-10-07 03:00:00 21.6 14 Norte 24 Nordeste 0 1014.2 -1.4 78
2019-10-07 02:00:00 21.6 14 Norte 24 Norte 0 1014.8 -0.8 78
2019-10-07 01:00:00 21.6 14 Norte 28 Nordeste 0 1015.4 -0.1 79
2019-10-07 00:00:00 21.9 18 Norte 33 Nordeste 0 1015.6 0.3 78
2019-10-06 23:00:00 22.3 20 Nordeste 35 Nordeste 0 1015.6 0.6 77
2019-10-06 22:00:00 22.5 22 Nordeste 32 Nordeste 0 1015.5 0.8 75
2019-10-06 21:00:00 22.6 21 Norte 33 Nordeste 0 1015.3 0.7 75
2019-10-06 20:00:00 23 26 Norte 41 Norte 0 1015 0.7 74
2019-10-06 19:00:00 24.1 31 Norte 52 Norte 0 1014.7 0.5 69
2019-10-06 18:00:00 25.5 32 Norte 45 Norte 0 1014.6 0 65
2019-10-06 17:00:00 26.9 31 Norte 45 Norte 0 1014.3 -1.2 59
2019-10-06 16:00:00 27.5 34 Norte 46 Norte 0 1014.2 -1.4 58
2019-10-06 15:00:00 27.5 34 Norte 46 Norte 0 1014.6 -1.2 57
2019-10-06 14:00:00 27.4 28 Nordeste 42 Nordeste 0 1015.5 -0.4 59
2019-10-06 13:00:00 26.7 25 Nordeste 45 Norte 0 1015.6 -0.1 61
2019-10-06 12:00:00 25.8 24 Nordeste 39 Nordeste 0 1015.8 0.7 63
2019-10-06 11:00:00 24.3 25 Norte 35 Nordeste 0 1015.9 1.4 69
2019-10-06 10:00:00 22.9 24 Norte 35 Norte 0 1015.7 1.7 74
2019-10-06 09:00:00 21.9 22 Norte 37 Norte 0 1015.1 1.5 78
2019-10-06 08:00:00 21.1 24 Norte 37 Norte 0 1014.5 0.9 82
2019-10-06 07:00:00 20.8 21 Norte 32 Norte 0 1014 -0.3 82
2019-10-06 06:00:00 21.2 21 Norte 33 Norte 0 1013.6 -1 79
2019-10-06 05:00:00 21.5 25 Norte 39 Norte 0 1013.6 -1.3 79
2019-10-06 04:00:00 21.7 26 Norte 39 Norte 0 1014.3 -0.6 80
2019-10-06 03:00:00 22.2 23 Nordeste 37 Norte 0 1014.6 -0.4 76
2019-10-06 02:00:00 22.2 22 Norte 35 Norte 0 1014.9 -0.3 76
2019-10-06 01:00:00 22.1 26 Nordeste 42 Nordeste 0 1014.9 0 78
2019-10-06 00:00:00 22.3 26 Norte 41 Norte 0 1015 0.9 77
2019-10-05 23:00:00 22.3 23 Nordeste 37 Norte 0 1015.2 1.8 76
2019-10-05 22:00:00 22 20 Norte 37 Norte 0 1014.9 2 79
2019-10-05 21:00:00 22.5 22 Norte 45 Norte 0 1014.1 1.3 77
2019-10-05 20:00:00 22.9 34 Norte 52 Norte 0 1013.4 0.9 78
2019-10-05 19:00:00 24.6 39 Norte 54 Norte 0 1012.9 0.2 70
2019-10-05 18:00:00 26 47 Norte 55 Norte 0 1012.8 -0.2 64
2019-10-05 17:00:00 27.1 40 Norte 58 Norte 0 1012.5 -0.8 61
2019-10-05 16:00:00 27.8 42 Norte 58 Norte 0 1012.7 -1.2 59
2019-10-05 15:00:00 28.3 43 Norte 55 Norte 0 1013 -0.9 57
2019-10-05 14:00:00 28.5 31 Nordeste 52 Norte 0 1013.3 -0.2 54
2019-10-05 13:00:00 28.4 30 Nordeste 50 Norte 0 1013.9 0.7 57
2019-10-05 12:00:00 27.6 44 Norte 59 Norte 0 1013.9 1.1 59
2019-10-05 11:00:00 25.8 47 Norte 67 Norte 0 1013.5 1.3 65
2019-10-05 10:00:00 24.3 47 Norte 63 Norte 0 1013.2 1.3 71
2019-10-05 09:00:00 22.5 37 Norte 58 Norte 0 1012.8 1.1 81
2019-10-05 08:00:00 21.6 41 Norte 54 Norte 0 1012.2 0.4 86
2019-10-05 07:00:00 21.5 34 Norte 54 Norte 0 1011.9 -0.3 86
2019-10-05 06:00:00 21.7 39 Norte 54 Norte 0 1011.7 -0.7 87
2019-10-05 05:00:00 21.8 42 Norte 54 Norte 0 1011.8 -0.9 87
2019-10-05 04:00:00 21.6 39 Norte 58 Norte 0 1012.2 -0.8 87
2019-10-05 03:00:00 21.5 32 Norte 48 Norte 0 1012.4 -1.1 88
2019-10-05 02:00:00 21.7 32 Norte 54 Norte 0 1012.7 -0.9 87
2019-10-05 01:00:00 21.8 39 Norte 59 Norte 0 1013 -0.5 86
2019-10-05 00:00:00 21.9 44 Norte 61 Norte 0 1013.5 0 84
2019-10-04 23:00:00 22 43 Norte 58 Norte 0 1013.6 0.4 84
2019-10-04 22:00:00 22.2 42 Norte 58 Norte 0 1013.5 1.1 83
2019-10-04 21:00:00 22.4 33 Norte 55 Norte 0 1013.5 1 82
2019-10-04 20:00:00 22.8 40 Norte 59 Norte 0 1013.2 0.3 79
2019-10-04 19:00:00 24.1 47 Norte 65 Norte 0 1012.4 -0.7 73
2019-10-04 18:00:00 26 51 Norte 63 Norte 0 1012.5 -0.9 65
2019-10-04 17:00:00 26.1 41 Norte 55 Norte 0 1012.9 -1.4 66
2019-10-04 16:00:00 28.1 41 Norte 52 Norte 0 1013.1 -2.2 57
2019-10-04 15:00:00 28.7 39 Norte 52 Norte 0 1013.4 -2 54
2019-10-04 14:00:00 28.7 35 Norte 48 Norte 0 1014.3 -1.1 55
2019-10-04 13:00:00 28.3 32 Norte 45 Norte 0 1015.3 0 56
2019-10-04 12:00:00 27.7 26 Norte 50 Norte 0 1015.4 0.5 57
2019-10-04 11:00:00 26.9 35 Norte 50 Norte 0 1015.4 1 61
2019-10-04 10:00:00 24.3 37 Norte 55 Norte 0 1015.3 1 73
2019-10-04 09:00:00 22.1 33 Norte 55 Nordeste 0 1014.9 1.4 81
2019-10-04 08:00:00 21.6 41 Norte 59 Norte 0 1014.4 1.2 83
2019-10-04 07:00:00 21.5 44 Norte 61 Norte 0 1014.3 0.9 85
2019-10-04 06:00:00 21.6 42 Norte 67 Norte 0 1013.5 -0.4 85
2019-10-04 05:00:00 21.6 42 Norte 72 Norte 0 1013.2 -1.7 87
2019-10-04 04:00:00 21.5 44 Norte 65 Norte 0 1013.4 -1.4 86
2019-10-04 03:00:00 21.7 42 Norte 59 Norte 0 1013.9 -1.2 87
2019-10-04 02:00:00 21.9 43 Norte 65 Norte 0 1014.9 0 85
2019-10-04 01:00:00 21.8 40 Norte 55 Norte 0 1014.8 0 87
2019-10-04 00:00:00 21.8 39 Norte 59 Norte 0 1015.1 0.7 87
2019-10-03 23:00:00 21.9 43 Norte 59 Norte 0 1014.9 0.7 86
2019-10-03 22:00:00 22.1 41 Norte 59 Norte 0 1014.8 0.3 84
2019-10-03 21:00:00 22.3 44 Norte 63 Norte 0 1014.4 -0.5 84
2019-10-03 20:00:00 22.7 39 Norte 68 Noroeste 0 1014.2 -0.8 81
2019-10-03 19:00:00 24.1 49 Norte 67 Norte 0 1014.5 -0.7 76
2019-10-03 18:00:00 25.8 51 Norte 68 Norte 0 1014.9 -0.8 69
2019-10-03 17:00:00 26.8 53 Norte 71 Norte 0 1015 -1.3 66
2019-10-03 16:00:00 27.2 53 Norte 72 Norte 0 1015.2 -1.3 63
2019-10-03 15:00:00 27.9 49 Norte 67 Norte 0 1015.7 -1.5 61
2019-10-03 14:00:00 28.1 48 Norte 68 Norte 0 1016.3 -1.3 61
2019-10-03 13:00:00 27.6 49 Norte 65 Norte 0 1016.5 -1 63
2019-10-03 12:00:00 27.3 50 Norte 65 Norte 0 1017.2 0.2 64
2019-10-03 11:00:00 26.2 46 Norte 65 Norte 0 1017.6 1.2 69
2019-10-03 10:00:00 24.7 50 Norte 59 Norte 0 1017.5 1.4 74
2019-10-03 09:00:00 22.8 37 Norte 54 Norte 0 1017 1.4 84
2019-10-03 08:00:00 21.7 35 Norte 52 Norte 0 1016.4 1 89
2019-10-03 07:00:00 21.8 36 Norte 52 Norte 0 1016.1 0.6 89
2019-10-03 06:00:00 21.7 35 Norte 50 Norte 0 1015.6 -0.1 90
2019-10-03 05:00:00 21.7 36 Norte 50 Norte 0 1015.4 -0.4 90
2019-10-03 04:00:00 21.9 30 Norte 41 Norte 0 1015.5 -0.8 88
2019-10-03 03:00:00 22.1 32 Norte 46 Norte 0 1015.7 -1.1 87
2019-10-03 02:00:00 23.1 27 Norte 45 Norte 0 1015.8 -0.8 78
2019-10-03 01:00:00 23.4 27 Norte 46 Norte 0 1016.3 0 76
2019-10-03 00:00:00 22.9 31 Norte 41 Norte 0 1016.8 1.1 85
2019-10-02 23:00:00 22.6 29 Norte 46 Norte 0 1016.6 1.5 88
2019-10-02 22:00:00 22.8 24 Norte 39 Norte 0 1016.3 1.6 86
2019-10-02 21:00:00 23.5 27 Norte 42 Norte 0 1015.7 1.1 82
2019-10-02 20:00:00 25.1 30 Norte 41 Norte 0 1015.1 0.5 71
2019-10-02 19:00:00 29.4 21 Norte 39 Nordeste 0 1014.7 0 48
2019-10-02 18:00:00 31.4 27 Nordeste 46 Nordeste 0 1014.6 -0.5 34
2019-10-02 17:00:00 31.9 32 Nordeste 48 Nordeste 0 1014.6 -1 35
2019-10-02 16:00:00 31.8 30 Nordeste 50 Norte 0 1014.7 -1.2 38
2019-10-02 15:00:00 32.1 34 Nordeste 50 Nordeste 0 1015.1 -1.1 33
2019-10-02 14:00:00 31.6 33 Nordeste 52 Norte 0 1015.6 -0.6 34
2019-10-02 13:00:00 31.4 31 Nordeste 52 Nordeste 0 1015.9 0.1 30
2019-10-02 12:00:00 30.7 26 Nordeste 46 Nordeste 0 1016.2 0.9 32
2019-10-02 11:00:00 29.4 25 Nordeste 37 Nordeste 0 1016.2 1.2 36
2019-10-02 10:00:00 25.8 14 Nordeste 22 Norte 0 1015.8 1.1 64
2019-10-02 09:00:00 22.4 8 Norte 22 Nordeste 0 1015.3 1 83
2019-10-02 08:00:00 20.8 17 Norte 33 Norte 0 1015 0.5 92
2019-10-02 07:00:00 20.9 24 Norte -- -- -- 1014.7 0.4 92
2019-10-02 06:00:00 20.9 20 Norte 30 Norte 0 1014.3 -0.5 91
2019-10-02 05:00:00 21 18 Norte 30 Norte 0 1014.5 -0.9 92
2019-10-02 04:00:00 21.5 21 Norte 30 Norte 0 1014.3 -1.4 84
2019-10-02 03:00:00 21.8 14 Norte 24 Norte 0 1014.8 -1.1 83
2019-10-02 02:00:00 23.3 10 Norte 24 Norte 0 1015.4 -0.3 62
2019-10-02 01:00:00 22.8 15 Norte 22 Nordeste 0 1015.7 0.2 73
2019-10-02 00:00:00 23.4 16 Nordeste 24 Nordeste 0 1015.9 1 65
2019-10-01 23:00:00 23.2 14 Norte 22 Norte 0 1015.7 1.3 64
2019-10-01 22:00:00 22.6 21 Norte 35 Norte 0 1015.5 1.7 84
2019-10-01 21:00:00 22.9 27 Norte 41 Norte 0 1014.9 1 85
2019-10-01 20:00:00 24 30 Norte 50 Norte 0 1014.4 0.8 80
2019-10-01 19:00:00 26.2 39 Norte 48 Norte 0 1013.8 0 69
2019-10-01 18:00:00 30.3 27 Norte 39 Norte 0 1013.9 -0.1 50
2019-10-01 17:00:00 32.4 26 Norte 37 Norte 0 1013.6 -1.2 41
2019-10-01 16:00:00 32.9 27 Norte 46 Norte 0 1013.8 -1.3 39
2019-10-01 15:00:00 32.9 32 Norte 46 Norte 0 1014 -1.5 42
2019-10-01 14:00:00 32.1 29 Norte -- -- -- 1014.8 -0.6 46
2019-10-01 13:00:00 31.9 32 Norte 45 Norte 0 1015.1 0.5 46
2019-10-01 12:00:00 30 28 Norte 48 Norte 0 1015.5 1.6 53
2019-10-01 11:00:00 26.7 32 Norte 48 Norte 0 1015.4 2 69
2019-10-01 10:00:00 25.1 28 Norte 45 Norte 0 1014.6 1.7 75
2019-10-01 09:00:00 23.1 31 Noroeste 45 Norte 0 1013.9 1.6 84
2019-10-01 08:00:00 21.9 20 Norte 33 Noroeste 0 1013.4 1.5 87
2019-10-01 07:00:00 21.7 19 Noroeste 30 Noroeste 0 1012.9 0.5 84
2019-10-01 06:00:00 21.8 22 Norte 35 Norte 0 1012.3 -0.4 85
2019-10-01 05:00:00 22.1 28 Norte 37 Norte 0 1011.9 -1.4 85
2019-10-01 04:00:00 21.8 16 Norte 28 Nordeste 0 1012.4 -1.7 89
2019-10-01 03:00:00 22.1 13 Nordeste 30 Norte 0 1012.7 -1.7 87
2019-10-01 02:00:00 21.7 9 Nordeste -- -- -- 1013.3 -0.7 88
2019-10-01 01:00:00 21.8 9 Norte 24 Norte 0 1014.1 1.2 89
2019-10-01 00:00:00 22.6 13 Norte 41 Noroeste 0 1014.4 2.6 88
2019-09-30 23:00:00 22.7 26 Norte 48 Norte 0 1014 2.7 87
2019-09-30 22:00:00 23.4 30 Norte 45 Noroeste 0 1012.9 1.9 83
2019-09-30 21:00:00 24.2 35 Norte 54 Norte 0 1011.8 0.9 77
2019-09-30 20:00:00 24.1 24 Noroeste 52 Norte 0 1011.3 0.2 81
2019-09-30 19:00:00 25.7 35 Noroeste 50 Noroeste 0 1011 -0.3 76
2019-09-30 18:00:00 28 36 Norte 48 Norte 0 1010.9 -0.4 68
2019-09-30 17:00:00 30.2 36 Norte 46 Norte 0 1011.1 -0.8 60
2019-09-30 16:00:00 28.6 15 Sur 22 Sur 0 1011.3 -1.1 65
2019-09-30 15:00:00 30.5 17 Sur 22 Sur 0 1011.3 -1.1 59
2019-09-30 14:00:00 31 17 Sur 22 Sur 0 1011.9 -0.6 55
2019-09-30 13:00:00 31.8 10 Sudeste 22 Nordeste 0 1012.4 0.6 52
2019-09-30 12:00:00 31.4 14 Norte 24 Norte 0 1012.4 0.7 53
2019-09-30 11:00:00 29.6 18 Norte 42 Norte 0 1012.5 1.7 56
2019-09-30 10:00:00 26.1 32 Norte 42 Noroeste 0 1011.8 1.7 72
2019-09-30 09:00:00 23.6 27 Norte 46 Noroeste 0 1011.7 1.6 81
2019-09-30 08:00:00 22.2 33 Noroeste 63 Noroeste 0 1010.8 0.8 89
2019-09-30 07:00:00 22.1 40 Noroeste 59 Noroeste 0 1010.1 -0.3 88
2019-09-30 06:00:00 22 40 Norte 58 Norte 0 1010.1 -1.5 89
2019-09-30 05:00:00 21.8 41 Norte 63 Norte 0 1010 -2.7 90
2019-09-30 04:00:00 21.8 41 Norte 54 Norte 0 1010.4 -2.8 91
2019-09-30 03:00:00 21.7 30 Norte 45 Noroeste 0 1011.6 -1.6 91
2019-09-30 02:00:00 21.9 24 Norte -- -- -- 1012.7 -0.7 89
2019-09-30 01:00:00 22 24 Norte 37 Norte 0 1013.2 0 89
2019-09-30 00:00:00 21.9 24 Norte 33 Norte 0 1013.2 0.6 90
2019-09-29 23:00:00 22 27 Norte 37 Norte 0 1013.4 1.7 89
2019-09-29 22:00:00 22.3 26 Norte 45 Norte 0 1013.2 1.6 87
2019-09-29 21:00:00 22.7 24 Norte 45 Norte 0 1012.6 0.8 84
2019-09-29 20:00:00 23.2 26 Norte 46 Noroeste 0 1011.7 -0.6 82
2019-09-29 19:00:00 24.7 32 Norte 52 Noroeste 0 1011.6 -1 75
2019-09-29 18:00:00 26.8 33 Norte 48 Norte 0 1011.8 -1.4 66
2019-09-29 17:00:00 29.2 26 Noroeste 41 Norte 0 1012.3 -1 57
2019-09-29 16:00:00 31.3 22 Norte 39 Norte 0 1012.6 -1.8 50
2019-09-29 15:00:00 31.8 17 Norte 42 Norte 0 1013.2 -1.5 44
2019-09-29 14:00:00 30 25 Nordeste 41 Nordeste 0 1013.3 -2 47
2019-09-29 13:00:00 30 22 Nordeste 37 Nordeste 0 1014.4 -0.6 48
2019-09-29 12:00:00 27.5 20 Nordeste 33 Nordeste 0 1014.7 -0.2 60
2019-09-29 11:00:00 26.2 22 Nordeste 32 Este 0 1015.3 0.9 64
2019-09-29 10:00:00 23.6 19 Norte 28 Nordeste 0 1015 0.7 74
2019-09-29 09:00:00 21 12 Norte 24 Nordeste 0 1014.9 1.1 87
2019-09-29 08:00:00 19.8 15 Norte 24 Nordeste 0 1014.4 0.5 89
2019-09-29 07:00:00 19.6 12 Norte 18 Norte 0 1014.3 -0.1 90
2019-09-29 06:00:00 19.9 12 Norte 18 Norte 0 1013.8 -0.9 89
2019-09-29 05:00:00 20.3 17 Norte 24 Norte 0 1013.9 -1.3 89
2019-09-29 04:00:00 20.8 15 Norte 24 Norte 0 1014.4 -1 88
2019-09-29 03:00:00 21.1 14 Nordeste 41 Norte 0 1014.7 -0.8 87
2019-09-29 02:00:00 21.3 23 Norte 39 Norte 0 1015.2 -0.7 86
2019-09-29 01:00:00 21.4 21 Norte 33 Norte 0 1015.4 -0.3 85
2019-09-29 00:00:00 21.7 25 Norte 42 Norte 0 1015.5 0.2 84
2019-09-28 23:00:00 21.9 22 Norte 35 Norte 0 1015.9 0.8 82
2019-09-28 22:00:00 22.2 23 Norte 41 Norte 0 1015.7 1.2 81
2019-09-28 21:00:00 22.5 23 Norte 35 Norte 0 1015.3 0.7 79
2019-09-28 20:00:00 23.1 28 Norte 39 Norte 0 1015.1 0.6 76
2019-09-28 19:00:00 24.7 29 Norte 39 Norte 0 1014.5 -0.2 71
2019-09-28 18:00:00 26.7 27 Norte 39 Norte 0 1014.6 -0.8 61
2019-09-28 17:00:00 28.3 26 Norte 37 Norte 0 1014.5 -1.3 55
2019-09-28 16:00:00 29.1 23 Norte 35 Noroeste 0 1014.7 -1.8 53
2019-09-28 15:00:00 28.2 20 Nordeste 37 Nordeste 0 1015.4 -1.6 56
2019-09-28 14:00:00 27 24 Nordeste 41 Este 0 1015.8 -1.4 59
2019-09-28 13:00:00 26.7 21 Nordeste 41 Este 0 1016.5 -0.6 59
2019-09-28 12:00:00 26.1 20 Nordeste 33 Nordeste 0 1017 0.6 61
2019-09-28 11:00:00 25.1 22 Nordeste 33 Nordeste 0 1017.2 1.5 65
2019-09-28 10:00:00 23.7 18 Nordeste 33 Norte 0 1017.1 1.7 70
2019-09-28 09:00:00 21.7 19 Norte 32 Norte 0 1016.4 1 82
2019-09-28 08:00:00 20.6 21 Norte 33 Norte 0 1015.7 0.4 87
2019-09-28 07:00:00 20.5 21 Norte 30 Norte 0 1015.4 -0.1 87
2019-09-28 06:00:00 20.7 20 Norte 30 Norte 0 1015.4 -0.5 86
2019-09-28 05:00:00 20.8 19 Norte 30 Norte 0 1015.3 -0.9 86
2019-09-28 04:00:00 21 23 Norte 33 Norte 0 1015.5 -1.2 85
2019-09-28 03:00:00 21.2 16 Norte 28 Norte 0 1015.9 -1.4 85
2019-09-28 02:00:00 21.2 19 Norte 28 Norte 0 1016.2 -1 86
2019-09-28 01:00:00 21.5 19 Norte 28 Norte 0 1016.7 -0.1 84
2019-09-28 00:00:00 22.3 14 Norte 28 Norte 0 1017.3 1.1 78
2019-09-27 23:00:00 22.3 21 Norte 33 Norte 0 1017.2 1.4 81
2019-09-27 22:00:00 22.4 22 Norte 35 Norte 0 1016.8 1 81
2019-09-27 21:00:00 22.7 24 Norte 37 Norte 0 1016.2 0.7 79
2019-09-27 20:00:00 23.2 29 Norte 41 Norte 0 1015.8 0.3 76
2019-09-27 19:00:00 24.9 28 Norte 41 Norte 0 1015.8 0.3 70
2019-09-27 18:00:00 26.2 29 Norte 41 Norte 0 1015.5 -0.2 64
2019-09-27 17:00:00 27.7 31 Norte 48 Noroeste 0 1015.5 -0.5 59
2019-09-27 16:00:00 28.6 25 Norte 37 Norte 0 1015.5 -1.3 56
2019-09-27 15:00:00 29.3 24 Norte 41 Nordeste 0 1015.7 -1.6 53
2019-09-27 14:00:00 28.1 25 Nordeste 39 Nordeste 0 1016 -1.4 57
2019-09-27 13:00:00 27.7 23 Nordeste 41 Nordeste 0 1016.8 -0.7 59
2019-09-27 12:00:00 27 20 Nordeste 33 Nordeste 0 1017.3 0.3 61
2019-09-27 11:00:00 26.2 18 Nordeste 30 Norte 0 1017.4 0.8 63
2019-09-27 10:00:00 23.5 23 Norte 42 Norte 0 1017.5 1.3 74
2019-09-27 09:00:00 22 21 Norte 28 Norte 0 1017 1.1 82
2019-09-27 08:00:00 20.9 15 Norte 26 Norte 0 1016.6 0.8 85
2019-09-27 07:00:00 21.3 14 Nordeste 33 Norte 0 1016.2 0.1 85
2019-09-27 06:00:00 21.5 17 Norte 30 Norte 0 1015.9 -0.6 82
2019-09-27 05:00:00 21.6 20 Norte 32 Norte 0 1015.8 -1.2 80
2019-09-27 04:00:00 21.6 17 Norte 30 Norte 0 1016.1 -1.3 82
2019-09-27 03:00:00 21.9 20 Norte 32 Norte 0 1016.5 -1.1 80
2019-09-27 02:00:00 22.3 18 Norte 39 Norte 0 1017 -0.7 78
2019-09-27 01:00:00 22.7 16 Norte 28 Norte 0 1017.4 0.3 77
2019-09-27 00:00:00 22.3 13 Norte 32 Norte 0 1017.6 1.1 77
2019-09-26 23:00:00 22.8 22 Norte 42 Norte 0 1017.7 1.9 76
2019-09-26 22:00:00 22.8 23 Norte 35 Norte 0 1017.1 1.7 77
2019-09-26 21:00:00 22.9 24 Norte 37 Norte 0 1016.5 1.2 76
2019-09-26 20:00:00 23.7 26 Norte 42 Noroeste 0 1015.8 0.8 73
2019-09-26 19:00:00 24.9 29 Norte 41 Norte 0 1015.4 0.3 70
2019-09-26 18:00:00 26.6 29 Norte 41 Norte 0 1015.3 -0.2 65
2019-09-26 17:00:00 27.6 32 Norte 42 Norte 0 1015 -0.7 61
2019-09-26 16:00:00 28.6 29 Norte 42 Norte 0 1015.1 -1.3 56
2019-09-26 15:00:00 28.7 30 Norte 46 Norte 0 1015.5 -1.3 56
2019-09-26 14:00:00 28.6 28 Norte 42 Norte 0 1015.7 -1.1 57
2019-09-26 13:00:00 27.5 21 Norte 42 Norte 0 1016.4 0 59
2019-09-26 12:00:00 26.1 25 Norte 42 Noroeste 0 1016.8 1.1 65
2019-09-26 11:00:00 25.9 26 Norte 35 Norte 0 1016.8 1.5 65
2019-09-26 10:00:00 24.4 27 Norte 37 Norte 0 1016.4 1.7 70
2019-09-26 09:00:00 23.1 27 Norte 35 Norte 0 1015.7 1.5 78
2019-09-26 08:00:00 22.4 22 Norte 35 Norte 0 1015.3 1.3 83
2019-09-26 07:00:00 22.4 24 Norte 35 Norte 0 1014.7 0.3 82
2019-09-26 06:00:00 22.5 24 Norte 32 Norte 0 1014.2 -0.4 82
2019-09-26 05:00:00 22.8 18 Norte 28 Norte 0 1014 -0.5 79
2019-09-26 04:00:00 22.7 17 Nordeste 32 Nordeste 0 1014.4 -0.7 78
2019-09-26 03:00:00 22.4 20 Norte 30 Norte 0 1014.6 -1 77
2019-09-26 02:00:00 22.5 17 Norte 33 Norte 0 1014.5 -0.9 77
2019-09-26 01:00:00 22.8 17 Nordeste 33 Nordeste 0 1015.1 0.1 79
2019-09-26 00:00:00 22.3 14 Norte 32 Norte 0 1015.6 1.1 79
2019-09-25 23:00:00 22.3 18 Norte 33 Nordeste 0 1015.4 1.3 80
2019-09-25 22:00:00 22.6 21 Norte 41 Norte 0 1015 1.1 78
2019-09-25 21:00:00 23 28 Norte 48 Norte 0 1014.5 0.7 82
2019-09-25 20:00:00 23.7 30 Norte 46 Norte 0 1014.1 0.5 78
2019-09-25 19:00:00 25.3 33 Norte 45 Norte 0 1013.9 0.1 69
2019-09-25 18:00:00 26.6 32 Norte 45 Norte 0 1013.8 -0.4 63
2019-09-25 17:00:00 27.9 33 Norte 52 Norte 0 1013.6 -1.2 59
2019-09-25 16:00:00 28.6 35 Norte 52 Norte 0 1013.8 -1.5 57
2019-09-25 15:00:00 28.8 37 Norte 50 Norte 0 1014.2 -1.6 56
2019-09-25 14:00:00 28.8 36 Norte 54 Norte 0 1014.8 -1.2 54
2019-09-25 13:00:00 28.5 37 Norte 50 Norte 0 1015.3 -0.8 55
2019-09-25 12:00:00 27.6 35 Norte -- -- -- 1015.8 0.1 59
2019-09-25 11:00:00 26.1 39 Norte 52 Norte 0 1016 0.7 63
2019-09-25 10:00:00 24.7 33 Norte 52 Norte 0 1016.1 0.9 70
2019-09-25 09:00:00 22.6 29 Norte 41 Norte 0 1015.7 0.7 80
2019-09-25 08:00:00 21.2 24 Norte 39 Norte 0 1015.3 0.4 86
2019-09-25 07:00:00 21.1 23 Norte 45 Norte 0 1015.2 0.4 85
2019-09-25 06:00:00 21 25 Norte 39 Norte 0 1015 -0.3 86
2019-09-25 05:00:00 21 18 Norte 39 Norte 0 1014.9 -1 84
2019-09-25 04:00:00 21.1 29 Norte 41 Norte 0 1014.8 -1.9 84
2019-09-25 03:00:00 20.9 18 Norte 30 Nordeste 0 1015.3 -1.5 85
2019-09-25 02:00:00 21.1 20 Norte 37 Norte 0 1015.9 -1 85
2019-09-25 01:00:00 21.3 22 Norte 32 Norte 0 1016.7 -0.1 83
2019-09-25 00:00:00 21.5 19 Norte 33 Norte 0 1016.8 0.6 82
2019-09-24 23:00:00 21.8 23 Norte 33 Norte 0 1016.9 0.9 81
2019-09-24 22:00:00 22.2 24 Norte 35 Norte 0 1016.8 0.9 78
2019-09-24 21:00:00 22.3 22 Norte 41 Norte 0 1016.2 0.4 77
2019-09-24 20:00:00 22.9 28 Norte 52 Norte 0 1016 0.1 74
2019-09-24 19:00:00 24.3 33 Norte 48 Norte 0 1015.9 -0.1 68
2019-09-24 18:00:00 25.6 36 Norte 48 Norte 0 1015.8 -0.8 63
2019-09-24 17:00:00 26.9 35 Norte 48 Norte 0 1015.9 -1.3 58
2019-09-24 16:00:00 27.8 35 Norte 52 Norte 0 1016 -1.9 56
2019-09-24 15:00:00 28.3 33 Norte 54 Norte 0 1016.6 -1.8 52
2019-09-24 14:00:00 27.6 34 Norte 48 Norte 0 1017.2 -1.4 55
2019-09-24 13:00:00 27.4 32 Norte 54 Noroeste 0 1017.9 0 54
2019-09-24 12:00:00 26.6 32 Norte 46 Norte 0 1018.4 1 57
2019-09-24 11:00:00 24.9 30 Norte 45 Norte 0 1018.6 2 62
2019-09-24 10:00:00 23.6 28 Norte 41 Norte 0 1017.9 1.4 67
2019-09-24 09:00:00 22.5 22 Norte 33 Norte 0 1017.4 1.2 73
2019-09-24 08:00:00 21.4 19 Nordeste 33 Norte 0 1016.6 0.3 75
2019-09-24 07:00:00 21.2 18 Norte 32 Norte 0 1016.5 0.1 75
2019-09-24 06:00:00 21.1 15 Nordeste 30 Norte 0 1016.2 -0.6 77
2019-09-24 05:00:00 21 17 Norte 26 Norte 0 1016.3 -0.8 77
2019-09-24 04:00:00 21.1 13 Norte 26 Nordeste 0 1016.4 -1.1 79
2019-09-24 03:00:00 21.2 15 Norte 26 Norte 0 1016.8 -1 80
2019-09-24 02:00:00 21.3 16 Norte 24 Norte 0.6 1017.1 -1 80
2019-09-24 01:00:00 21.5 15 Norte 24 Norte 0 1017.5 -0.2 79
2019-09-24 00:00:00 21.9 18 Norte 33 Norte 0 1017.8 0.7 77
2019-09-23 23:00:00 22.2 23 Norte 35 Norte 0 1018.1 1.2 78
2019-09-23 22:00:00 22.5 29 Norte 45 Norte 0 1017.7 1.3 78
2019-09-23 21:00:00 22.7 27 Norte 41 Norte 0 1017.1 0.9 76
2019-09-23 20:00:00 23.3 26 Norte 46 Norte 0 1016.9 0.6 73
2019-09-23 19:00:00 24.9 40 Norte 48 Norte 0 1016.4 0.1 65
2019-09-23 18:00:00 26.4 37 Norte 48 Norte 0 1016.2 -0.2 58
2019-09-23 17:00:00 27.4 33 Norte 55 Noroeste 0 1016.3 -0.1 55
2019-09-23 16:00:00 27.9 35 Norte 46 Norte 0 1016.3 -0.6 53
2019-09-23 15:00:00 27.9 33 Norte 48 Norte 0 1016.4 -0.9 53
2019-09-23 14:00:00 28.2 23 Nordeste 52 Norte 0 1016.4 -1 53
2019-09-23 13:00:00 27.9 24 Norte 48 Norte 0 1016.9 -0.2 53
2019-09-23 12:00:00 26.9 24 Nordeste -- -- -- 1017.3 0.8 58
2019-09-23 11:00:00 25.1 24 Norte 45 Norte 0 1017.4 1.4 64
2019-09-23 10:00:00 24.8 26 Norte 35 Norte 0 1017.1 1.5 68
2019-09-23 09:00:00 23.1 23 Norte 35 Norte 0 1016.5 1.2 75
2019-09-23 08:00:00 21.3 21 Norte 35 Norte 0 1016 0.7 85
2019-09-23 07:00:00 21 16 Norte 30 Norte 0 1015.6 0.2 85
2019-09-23 06:00:00 20.9 21 Norte 32 Norte 0 1015.3 -0.2 85
2019-09-23 05:00:00 21.1 23 Norte 30 Norte 0 1015.3 -0.6 83
2019-09-23 04:00:00 21.6 23 Norte 37 Norte 0 1015.4 -1 82
2019-09-23 03:00:00 22.2 27 Norte 37 Norte 0 1015.5 -1 84
2019-09-23 02:00:00 22.6 16 Norte 24 Norte 0 1015.9 -0.6 85
2019-09-23 01:00:00 22.6 20 Norte 28 Norte 0 1016.4 0.2 86
2019-09-23 00:00:00 22.6 20 Norte 28 Norte 0 1016.5 1 86
2019-09-22 23:00:00 23 21 Norte 33 Norte 0 1016.5 1.4 84
2019-09-22 22:00:00 23.2 22 Norte 45 Norte 0 1016.2 1.4 86
2019-09-22 21:00:00 23.3 22 Norte 42 Norte 0 1015.5 1.1 87
2019-09-22 20:00:00 24 28 Norte 41 Norte 0 1015.1 1.1 85
2019-09-22 19:00:00 25.1 26 Norte 37 Norte 0 1014.8 0.7 81
2019-09-22 18:00:00 26.2 21 Norte 32 Noroeste 0 1014.4 0 77
2019-09-22 17:00:00 28.4 26 Norte 35 Norte 0 1014 -0.9 65
2019-09-22 16:00:00 30.5 23 Norte 35 Norte 0 1014.1 -1.3 57
2019-09-22 15:00:00 30.2 21 Norte 37 Noroeste 0 1014.4 -1.7 57
2019-09-22 14:00:00 29.9 22 Norte 39 Norte 0 1014.9 -0.9 57
2019-09-22 13:00:00 29.2 17 Norte 35 Noroeste 0 1015.4 -0.4 58
2019-09-22 12:00:00 25.6 11 Norte 24 Nordeste 0 1016.1 0.7 73
2019-09-22 11:00:00 27.1 17 Norte 39 Noroeste 0 1015.8 0.6 64
2019-09-22 10:00:00 25.3 20 Norte 32 Norte 0 1015.8 0.8 72
2019-09-22 09:00:00 22.9 2 Este 8 Noroeste 0 1015.4 1.1 85
2019-09-22 08:00:00 20.2 0 Calma 9 Norte 0 1015.2 1.3 92
2019-09-22 07:00:00 20.4 2 Nordeste 9 Nordeste 0 1015 1 91
2019-09-22 06:00:00 21 5 Nordeste 13 Norte 0 1014.3 -0.3 90
2019-09-22 05:00:00 21.8 10 Norte 21 Norte 0 1013.9 -1 87
2019-09-22 04:00:00 21.8 14 Norte 18 Norte 0 1014 -1.3 87
2019-09-22 03:00:00 21.8 7 Noroeste 13 Norte 0 1014.6 -0.8 85
2019-09-22 02:00:00 22.5 8 Noroeste 11 Noroeste 0 1014.9 -0.6 83
2019-09-22 01:00:00 22.8 6 Norte 11 Noroeste 0 1015.3 0.3 82
2019-09-22 00:00:00 22.6 5 Noroeste 13 Noroeste 0 1015.4 1.3 82
2019-09-21 23:00:00 22.6 6 Oeste 13 Noroeste 0 1015.5 1.8 79
2019-09-21 22:00:00 23 8 Noroeste 26 Oeste 0 1015 1.5 77
2019-09-21 21:00:00 22.9 2 Sur 15 Sudoeste 0 1014.1 0.5 82
2019-09-21 20:00:00 23.3 8 Sur 13 Sudeste 0 1013.7 0.2 83
2019-09-21 19:00:00 24.1 10 Sudeste 15 Sudeste 0 1013.5 -0.1 80
2019-09-21 18:00:00 24.9 12 Sudeste 21 Sudeste 0 1013.6 -0.1 75
2019-09-21 17:00:00 25.6 13 Sudeste 21 Este 0 1013.5 -0.7 70
2019-09-21 16:00:00 25.9 15 Sudeste 21 Sudeste 0 1013.6 -1 68
2019-09-21 15:00:00 25.4 12 Sudeste 17 Este 0 1013.7 -1.2 72
2019-09-21 14:00:00 25.6 13 Sudeste 18 Sudeste 0 1014.2 -0.5 71
2019-09-21 13:00:00 25.6 15 Sudeste 22 Este 0 1014.6 0.2 72
2019-09-21 12:00:00 25.2 14 Este 26 Este 0 1014.9 1 72
2019-09-21 11:00:00 26.3 16 Norte 28 Norte 0 1014.7 1.2 62
2019-09-21 10:00:00 24.1 17 Norte 24 Norte 0 1014.4 1.6 72
2019-09-21 09:00:00 22 9 Norte 22 Noroeste 0 1013.9 1.2 84
2019-09-21 08:00:00 20 4 Norte 28 Oeste 0 1013.5 1 90
2019-09-21 07:00:00 19.4 0 Calma 13 Norte 0 1012.8 0 89
2019-09-21 06:00:00 19.2 0 Calma 9 Nordeste 0 1012.7 -0.4 91
2019-09-21 05:00:00 19.7 8 Nordeste 18 Norte 0 1012.5 -0.7 90
2019-09-21 04:00:00 19.8 9 Norte 15 Noroeste 0 1012.8 -0.9 88
2019-09-21 03:00:00 19.9 6 Noroeste 13 Noroeste 0 1013.1 -0.9 87
2019-09-21 02:00:00 20 9 Noroeste 11 Norte 0 1013.2 -0.8 87
2019-09-21 01:00:00 20.2 6 Norte 11 Nordeste 0 1013.7 -0.4 86
2019-09-21 00:00:00 20.9 7 Norte 18 Norte 0 1014 0.5 84
2019-09-20 23:00:00 21.4 15 Norte 30 Norte 0 1014 1.1 83
2019-09-20 22:00:00 21.8 14 Norte 33 Oeste 0 1014.1 1.4 81
2019-09-20 21:00:00 22.4 19 Norte 41 Noroeste 0 1013.5 0.9 78
2019-09-20 20:00:00 23.1 24 Norte 41 Noroeste 0 1012.9 0.2 75
2019-09-20 19:00:00 25 30 Norte 39 Norte 0 1012.7 -0.2 67
2019-09-20 18:00:00 26.6 28 Norte 41 Norte 0 1012.6 -0.8 61
2019-09-20 17:00:00 28.3 25 Norte 33 Norte 0 1012.7 -1.4 54
2019-09-20 16:00:00 28.5 22 Norte 33 Norte 0 1012.9 -1.8 53
2019-09-20 15:00:00 28.1 23 Norte 32 Norte 0 1013.4 -1.7 55
2019-09-20 14:00:00 28.7 15 Norte 35 Norte 0 1014.1 -1.3 55
2019-09-20 13:00:00 28.2 17 Norte 32 Norte 0 1014.7 0.1 56
2019-09-20 12:00:00 26.3 8 Nordeste 41 Noroeste 0 1015.1 1 62
2019-09-20 11:00:00 25.3 14 Norte 30 Norte 0 1015.4 2 66
2019-09-20 10:00:00 23 22 Norte 32 Norte 0 1014.6 1.6 77
2019-09-20 09:00:00 22.4 16 Norte 22 Nordeste 0 1014.1 1.2 81
2019-09-20 08:00:00 21.6 16 Norte 26 Norte 0 1013.4 0.3 85
2019-09-20 07:00:00 20.8 11 Nordeste 26 Norte 0 1013 -0.8 87
2019-09-20 06:00:00 21 17 Norte 24 Norte 0 1012.9 -1.1 87
2019-09-20 05:00:00 21.3 14 Norte 24 Norte 0 1013.1 -1.6 86
2019-09-20 04:00:00 20.5 19 Norte 26 Norte 0 1013.8 -0.8 87
2019-09-20 03:00:00 21.6 15 Norte 32 Norte 0 1014 -1 84
2019-09-20 02:00:00 21.6 14 Nordeste 26 Norte 0 1014.7 -0.3 84
2019-09-20 01:00:00 21.6 14 Nordeste 32 Norte 0 1014.6 -0.1 84
2019-09-20 00:00:00 21.7 18 Norte 30 Norte 0 1015 1.1 82
2019-09-19 23:00:00 21.8 18 Nordeste 35 Norte 0 1015 1.4 84
2019-09-19 22:00:00 22 27 Norte 39 Norte 0 1014.7 1.3 81
2019-09-19 21:00:00 22.4 24 Norte 45 Norte 0 1013.9 0.6 79
2019-09-19 20:00:00 23.2 28 Norte 41 Norte 0 1013.6 0.4 75
2019-09-19 19:00:00 25.1 33 Norte 45 Norte 0 1013.4 0.1 67
2019-09-19 18:00:00 27 29 Norte 41 Norte 0 1013.3 -0.2 60
2019-09-19 17:00:00 28 27 Norte 41 Norte 0 1013.2 -0.8 54
2019-09-19 16:00:00 28.7 26 Norte 46 Noroeste 0 1013.3 -1 54
2019-09-19 15:00:00 28.6 30 Norte 45 Norte 0 1013.5 -1.1 54
2019-09-19 14:00:00 28.5 32 Norte 45 Noroeste 0 1014 -0.9 55
2019-09-19 13:00:00 27.9 28 Norte 48 Norte 0 1014.3 -0.4 56
2019-09-19 12:00:00 27.4 30 Norte 45 Norte 0 1014.6 0.2 58
2019-09-19 11:00:00 26 23 Nordeste 35 Este 0 1014.9 1 61
2019-09-19 10:00:00 24.4 21 Nordeste 33 Norte 0 1014.7 0.8 65
2019-09-19 09:00:00 22 16 Norte 24 Norte 0 1014.4 0.9 76
2019-09-19 08:00:00 19.6 17 Norte 22 Norte 0 1013.9 0.5 90
2019-09-19 07:00:00 19.4 14 Norte 21 Norte 0 1013.9 0.4 89
2019-09-19 06:00:00 19.8 15 Norte 24 Norte 0 1013.5 -0.5 89
2019-09-19 05:00:00 19.7 18 Norte 22 Norte 0 1013.4 -1.2 87
2019-09-19 04:00:00 19.6 13 Norte 21 Norte 0 1013.5 -1.2 85
2019-09-19 03:00:00 19.8 16 Norte 24 Norte 0 1014 -0.9 87
2019-09-19 02:00:00 20 14 Norte 30 Norte 0 1014.6 -0.6 86
2019-09-19 01:00:00 20.9 19 Norte 32 Norte 0 1014.7 0 85
2019-09-19 00:00:00 21.1 20 Norte 30 Norte 0 1014.9 0.8 85
2019-09-18 23:00:00 21.5 19 Nordeste 33 Norte 0 1015.2 1.1 82
2019-09-18 22:00:00 21.9 20 Norte 42 Norte 0 1014.7 1 80
2019-09-18 21:00:00 22.4 28 Norte 39 Norte 0 1014.1 0.5 78
2019-09-18 20:00:00 23.8 23 Norte 35 Norte 0 1014.1 0.6 71
2019-09-18 19:00:00 25.4 20 Nordeste 37 Nordeste 0 1013.7 0.3 66
2019-09-18 18:00:00 26.5 24 Nordeste 46 Este 0 1013.6 -0.1 60
2019-09-18 17:00:00 27.2 23 Este 39 Nordeste 0 1013.5 -0.5 59
2019-09-18 16:00:00 27.9 21 Nordeste 41 Nordeste 0 1013.4 -1.1 57
2019-09-18 15:00:00 28.5 26 Nordeste 52 Nordeste 0 1013.7 -1.2 55
2019-09-18 14:00:00 28.2 25 Nordeste 39 Nordeste 0 1014 -1.1 55
2019-09-18 13:00:00 27.7 22 Nordeste 37 Este 0 1014.5 -0.4 55
2019-09-18 12:00:00 26.7 22 Nordeste 39 Nordeste 0 1014.9 0.4 60
2019-09-18 11:00:00 24.6 19 Nordeste 33 Nordeste 0 1015.1 1 66
2019-09-18 10:00:00 23.3 17 Nordeste 32 Nordeste 0 1014.9 1.3 72
2019-09-18 09:00:00 20.7 13 Norte 22 Nordeste 0 1014.5 1.3 81
2019-09-18 08:00:00 19 12 Norte 18 Norte 0 1014.1 0.9 85
2019-09-18 07:00:00 19.5 14 Norte 18 Norte 0 1013.6 0.2 83
2019-09-18 06:00:00 20.3 15 Norte 26 Norte 0 1013.2 -0.6 81
2019-09-18 05:00:00 19.9 16 Norte 22 Norte 0 1013.2 -0.9 84
2019-09-18 04:00:00 19.5 13 Norte 21 Norte 0 1013.4 -0.8 85
2019-09-18 03:00:00 19.7 16 Norte 22 Norte 0 1013.8 -0.9 86
2019-09-18 02:00:00 20.2 18 Norte 28 Norte 0 1014.1 -0.9 86
2019-09-18 01:00:00 20.6 15 Nordeste 22 Norte 0 1014.2 -0.6 84
2019-09-18 00:00:00 20.4 17 Norte 22 Norte 0 1014.7 0.7 84
2019-09-17 23:00:00 20.9 14 Norte 32 Norte 0 1015 1.4 84
2019-09-17 22:00:00 21.6 17 Norte 35 Norte 0 1014.8 1.3 82
2019-09-17 21:00:00 22.2 21 Norte 42 Noroeste 0 1014 0.9 80
2019-09-17 20:00:00 23.4 23 Norte 35 Norte 0 1013.6 0.5 74